Time;durP1;ratioP1;P1;durP2;ratioP2;P2;SDS_P1;SDS_P2;PMS_P1;PMS_P2;Temp;Humidity;BMP_temperature;BMP_pressure;BME280_temperature;BME280_humidity;BME280_pressure;Samples;Min_cycle;Max_cycle;Signal;HPM_P1;HPM_P2
2023/12/24 00:00:05;;;;;;;0.68;0.17;;;11.00;99.90;;;;;;4862237;29;20057;-65
2023/12/24 00:02:33;;;;;;;0.00;0.00;;;11.10;99.90;;;;;;4856881;29;20049;-62
2023/12/24 00:05:01;;;;;;;0.47;0.00;;;11.10;99.90;;;;;;4870304;29;20494;-65
2023/12/24 00:07:29;;;;;;;0.13;0.00;;;11.10;99.90;;;;;;4855049;29;20054;-63
2023/12/24 00:09:56;;;;;;;0.22;0.08;;;11.10;99.90;;;;;;4875268;29;20045;-65
2023/12/24 00:12:25;;;;;;;0.30;0.00;;;11.20;99.90;;;;;;4857188;29;20061;-63
2023/12/24 00:14:54;;;;;;;0.52;0.00;;;11.20;99.90;;;;;;4874245;29;20410;-66
2023/12/24 00:17:22;;;;;;;0.67;0.00;;;11.20;99.90;;;;;;4875004;29;20053;-64
2023/12/24 00:19:50;;;;;;;0.08;0.08;;;11.20;99.90;;;;;;4857169;29;20521;-65
2023/12/24 00:22:18;;;;;;;0.68;0.38;;;11.30;99.90;;;;;;4861582;29;20050;-66
2023/12/24 00:24:46;;;;;;;0.10;0.00;;;11.20;99.90;;;;;;4868817;29;20127;-67
2023/12/24 00:27:15;;;;;;;0.93;0.10;;;11.20;99.90;;;;;;4864421;29;20064;-66
2023/12/24 00:29:43;;;;;;;0.10;0.00;;;11.30;99.90;;;;;;4871317;29;20053;-64
2023/12/24 00:32:11;;;;;;;0.00;0.00;;;11.30;99.90;;;;;;4871234;29;20056;-66
2023/12/24 00:34:39;;;;;;;1.15;0.00;;;11.30;99.90;;;;;;4867903;29;20045;-70
2023/12/24 00:37:07;;;;;;;1.17;0.13;;;11.30;99.90;;;;;;4858780;29;20065;-67
2023/12/24 00:39:35;;;;;;;0.10;0.10;;;11.30;99.90;;;;;;4870835;29;20057;-72
2023/12/24 00:42:03;;;;;;;0.63;0.00;;;11.30;99.90;;;;;;4858127;29;20056;-69
2023/12/24 00:44:32;;;;;;;0.77;0.10;;;11.40;99.90;;;;;;4873213;29;20049;-70
2023/12/24 00:47:00;;;;;;;0.13;0.00;;;11.40;99.90;;;;;;4874902;29;20049;-75
2023/12/24 00:49:29;;;;;;;0.15;0.00;;;11.40;99.90;;;;;;4861699;29;20069;-62
2023/12/24 00:51:59;;;;;;;0.40;0.13;;;11.40;99.90;;;;;;4856444;29;20053;-62
2023/12/24 00:54:27;;;;;;;0.15;0.08;;;11.50;99.90;;;;;;4858125;29;20045;-64
2023/12/24 00:56:56;;;;;;;0.77;0.10;;;11.50;99.90;;;;;;4854784;29;20058;-63
2023/12/24 00:59:24;;;;;;;0.20;0.10;;;11.50;99.90;;;;;;4870390;29;20512;-63
2023/12/24 01:01:51;;;;;;;0.00;0.00;;;11.50;99.90;;;;;;4870705;29;20053;-62
2023/12/24 01:04:19;;;;;;;0.08;0.00;;;11.40;99.90;;;;;;4859837;29;20061;-62
2023/12/24 01:06:47;;;;;;;1.40;0.13;;;11.50;99.90;;;;;;4858538;29;20410;-62
2023/12/24 01:09:16;;;;;;;1.10;0.10;;;11.50;99.90;;;;;;4869594;29;20041;-62
2023/12/24 01:11:44;;;;;;;0.77;0.10;;;11.50;99.90;;;;;;4873108;29;20533;-66
2023/12/24 01:14:14;;;;;;;0.20;0.00;;;11.50;99.90;;;;;;4869386;29;20048;-61
2023/12/24 01:16:43;;;;;;;0.65;0.13;;;11.50;99.90;;;;;;4872071;29;20062;-66
2023/12/24 01:19:12;;;;;;;0.77;0.10;;;11.50;99.90;;;;;;4857404;29;20049;-62
2023/12/24 01:21:39;;;;;;;0.03;0.03;;;11.50;99.90;;;;;;4854427;29;20390;-61
2023/12/24 01:24:08;;;;;;;0.80;0.10;;;11.50;99.90;;;;;;4859045;29;20045;-62
2023/12/24 01:26:37;;;;;;;2.50;0.80;;;11.50;99.90;;;;;;4873439;29;20482;-63
2023/12/24 01:29:05;;;;;;;0.10;0.00;;;11.50;99.90;;;;;;4870272;29;20422;-62
2023/12/24 01:31:33;;;;;;;0.22;0.00;;;11.50;99.90;;;;;;4861307;29;20056;-63
2023/12/24 01:34:01;;;;;;;0.00;0.00;;;11.50;99.90;;;;;;4869177;29;20401;-62
2023/12/24 01:36:29;;;;;;;0.75;0.20;;;11.50;99.90;;;;;;4873016;29;20520;-62
2023/12/24 01:38:59;;;;;;;3.10;0.13;;;11.60;99.90;;;;;;4861602;29;20049;-61
2023/12/24 01:41:27;;;;;;;0.55;0.08;;;11.60;99.90;;;;;;4872351;29;20513;-62
2023/12/24 01:43:56;;;;;;;0.30;0.13;;;11.60;99.90;;;;;;4864884;29;20486;-64
2023/12/24 01:46:24;;;;;;;1.37;0.30;;;11.60;99.90;;;;;;4877447;29;20045;-62
2023/12/24 01:48:53;;;;;;;1.10;0.25;;;11.60;99.90;;;;;;4867894;29;20297;-62
2023/12/24 01:51:22;;;;;;;2.33;0.10;;;11.60;99.90;;;;;;4874393;29;20053;-62
2023/12/24 01:53:52;;;;;;;1.20;0.10;;;11.60;99.90;;;;;;4859337;29;20050;-62
2023/12/24 01:56:22;;;;;;;0.70;0.20;;;11.60;99.90;;;;;;4876101;29;20045;-62
2023/12/24 01:58:52;;;;;;;3.33;0.35;;;11.60;99.90;;;;;;4860456;29;20052;-62
2023/12/24 02:01:20;;;;;;;2.00;0.38;;;11.60;99.90;;;;;;4876294;29;20049;-64
2023/12/24 02:03:48;;;;;;;2.95;0.15;;;11.60;99.90;;;;;;4872402;29;20041;-63
2023/12/24 02:06:17;;;;;;;2.72;0.22;;;11.60;99.90;;;;;;4875477;29;20061;-62
2023/12/24 02:08:46;;;;;;;0.80;0.13;;;11.60;99.90;;;;;;4860106;29;20049;-64
2023/12/24 02:11:16;;;;;;;1.90;0.10;;;11.50;99.90;;;;;;4875795;29;20486;-62
2023/12/24 02:13:45;;;;;;;0.32;0.15;;;11.60;99.90;;;;;;4871298;29;20501;-61
2023/12/24 02:16:18;;;;;;;0.35;0.10;;;11.60;99.90;;;;;;4877162;29;20053;-61
2023/12/24 02:18:47;;;;;;;2.15;0.20;;;11.60;99.90;;;;;;4875707;29;20215;-62
2023/12/24 02:21:15;;;;;;;1.90;0.30;;;11.60;99.90;;;;;;4875974;29;20550;-61
2023/12/24 02:23:43;;;;;;;0.03;0.03;;;11.70;99.90;;;;;;4872593;29;20405;-62
2023/12/24 02:26:32;;;;;;;1.70;0.30;;;11.70;99.90;;;;;;4875344;29;20049;-61
2023/12/24 02:29:16;;;;;;;0.95;0.10;;;11.70;99.90;;;;;;4875453;29;20490;-61
2023/12/24 02:31:47;;;;;;;2.20;0.32;;;11.70;99.90;;;;;;4864684;29;20045;-63
2023/12/24 02:34:19;;;;;;;1.05;0.17;;;11.80;99.90;;;;;;4862367;29;20053;-61
2023/12/24 02:36:49;;;;;;;1.35;0.13;;;11.80;99.90;;;;;;4875065;29;20061;-62
2023/12/24 02:39:17;;;;;;;0.40;0.05;;;11.80;99.90;;;;;;4870019;29;20048;-63
2023/12/24 02:41:44;;;;;;;0.63;0.10;;;11.80;99.90;;;;;;4868827;29;20056;-64
2023/12/24 02:44:12;;;;;;;0.25;0.10;;;11.80;99.90;;;;;;4877407;29;20498;-63
2023/12/24 02:46:40;;;;;;;2.17;0.10;;;11.80;99.90;;;;;;4871683;29;20060;-62
2023/12/24 02:49:08;;;;;;;0.55;0.05;;;11.80;99.90;;;;;;4876089;29;20084;-63
2023/12/24 02:51:36;;;;;;;0.00;0.00;;;11.80;99.90;;;;;;4861445;29;20071;-64
2023/12/24 02:54:03;;;;;;;1.17;0.00;;;11.80;99.90;;;;;;4862416;29;20053;-66
2023/12/24 02:56:36;;;;;;;0.20;0.10;;;11.80;99.90;;;;;;4860521;29;20049;-65
2023/12/24 02:59:04;;;;;;;0.38;0.15;;;11.80;99.90;;;;;;4870019;29;20060;-65
2023/12/24 03:01:32;;;;;;;1.73;0.03;;;11.80;99.90;;;;;;4860972;29;20042;-64
2023/12/24 03:04:04;;;;;;;2.95;0.20;;;11.80;99.90;;;;;;4861493;29;20513;-62
2023/12/24 03:06:35;;;;;;;1.98;0.15;;;11.80;99.90;;;;;;4877311;29;20533;-62
2023/12/24 03:09:03;;;;;;;1.48;0.52;;;11.80;99.90;;;;;;4875109;29;20054;-61
2023/12/24 03:11:31;;;;;;;1.33;0.20;;;11.90;99.90;;;;;;4860841;29;20061;-61
2023/12/24 03:13:59;;;;;;;1.83;0.35;;;11.80;99.90;;;;;;4869888;29;20052;-62
2023/12/24 03:16:27;;;;;;;2.85;0.20;;;11.90;99.90;;;;;;4889183;29;20490;-63
2023/12/24 03:18:55;;;;;;;3.38;0.52;;;11.90;99.90;;;;;;4877086;29;20048;-63
2023/12/24 03:21:24;;;;;;;2.00;0.50;;;11.90;99.90;;;;;;4877980;29;20060;-63
2023/12/24 03:23:51;;;;;;;1.98;0.40;;;11.90;99.90;;;;;;4879326;29;20045;-62
2023/12/24 03:26:22;;;;;;;2.13;0.60;;;11.90;99.90;;;;;;4862467;29;20056;-62
2023/12/24 03:28:51;;;;;;;1.15;0.20;;;11.90;99.90;;;;;;4873312;29;20053;-62
2023/12/24 03:31:20;;;;;;;3.38;0.20;;;11.90;99.90;;;;;;4866657;29;20037;-61
2023/12/24 03:33:48;;;;;;;1.80;0.20;;;11.90;99.90;;;;;;4862467;29;20057;-62
2023/12/24 03:36:16;;;;;;;3.00;0.20;;;11.90;99.90;;;;;;4874833;29;20061;-62
2023/12/24 03:38:44;;;;;;;0.90;0.40;;;12.00;99.90;;;;;;4864704;29;20049;-62
2023/12/24 03:41:12;;;;;;;2.08;0.50;;;12.00;99.90;;;;;;4876018;29;20489;-62
2023/12/24 03:43:40;;;;;;;2.13;1.08;;;12.00;99.90;;;;;;4875769;29;20060;-61
2023/12/24 03:46:09;;;;;;;1.63;0.30;;;12.00;99.90;;;;;;4859154;29;20045;-61
2023/12/24 03:48:37;;;;;;;6.00;0.95;;;12.00;99.90;;;;;;4875558;29;20418;-62
2023/12/24 03:51:06;;;;;;;3.60;0.40;;;12.00;99.90;;;;;;4877493;29;20049;-61
2023/12/24 03:53:35;;;;;;;1.67;0.32;;;12.00;99.90;;;;;;4878824;29;20057;-62
2023/12/24 03:56:04;;;;;;;2.33;0.40;;;12.00;99.90;;;;;;4863805;29;20049;-61
2023/12/24 03:58:33;;;;;;;3.72;0.45;;;12.00;99.90;;;;;;4860189;29;20056;-62
2023/12/24 04:01:01;;;;;;;3.53;0.40;;;11.90;99.90;;;;;;4870253;29;20056;-63
2023/12/24 04:03:29;;;;;;;1.93;0.63;;;12.00;99.90;;;;;;4877255;29;20494;-67
2023/12/24 04:05:58;;;;;;;2.92;0.52;;;12.00;99.90;;;;;;4874092;29;20045;-63
2023/12/24 04:08:26;;;;;;;4.93;0.75;;;11.90;99.90;;;;;;4858051;29;20070;-64
2023/12/24 04:10:55;;;;;;;6.20;0.80;;;11.90;99.90;;;;;;4859312;29;20061;-63
2023/12/24 04:13:23;;;;;;;3.78;0.60;;;11.90;99.90;;;;;;4865870;29;20513;-65
2023/12/24 04:15:52;;;;;;;3.70;0.57;;;11.90;99.90;;;;;;4858643;29;20045;-61
2023/12/24 04:18:21;;;;;;;3.80;0.50;;;11.90;99.90;;;;;;4871857;29;20418;-62
2023/12/24 04:20:49;;;;;;;4.43;0.60;;;11.90;99.90;;;;;;4876897;29;20048;-62
2023/12/24 04:23:18;;;;;;;2.72;0.68;;;11.90;99.90;;;;;;4877095;29;20080;-61
2023/12/24 04:25:46;;;;;;;4.88;0.50;;;11.90;99.90;;;;;;4864986;29;20522;-61
2023/12/24 04:28:13;;;;;;;7.07;0.57;;;11.80;99.90;;;;;;4876275;29;20059;-62
2023/12/24 04:30:42;;;;;;;7.25;0.98;;;11.80;99.90;;;;;;4873709;29;20048;-62
2023/12/24 04:33:10;;;;;;;5.63;0.65;;;11.80;99.90;;;;;;4873350;29;20647;-62
2023/12/24 04:35:39;;;;;;;3.25;0.50;;;11.80;99.90;;;;;;4859043;29;20478;-61
2023/12/24 04:38:07;;;;;;;4.22;0.70;;;11.80;99.90;;;;;;4866678;29;20049;-61
2023/12/24 04:40:36;;;;;;;1.85;0.60;;;11.80;99.90;;;;;;4873062;29;20057;-62
2023/12/24 04:43:04;;;;;;;5.13;0.60;;;11.80;99.90;;;;;;4858356;29;20073;-62
2023/12/24 04:45:32;;;;;;;3.45;0.50;;;11.80;99.90;;;;;;4858157;29;20052;-62
2023/12/24 04:48:03;;;;;;;4.68;0.50;;;11.90;99.90;;;;;;4860898;29;20406;-62
2023/12/24 04:50:31;;;;;;;7.63;0.80;;;11.90;99.90;;;;;;4876706;29;20484;-62
2023/12/24 04:52:59;;;;;;;4.18;0.45;;;12.00;99.90;;;;;;4876946;29;20045;-62
2023/12/24 04:55:27;;;;;;;3.40;0.52;;;12.00;99.90;;;;;;4876108;29;20047;-62
2023/12/24 04:57:55;;;;;;;5.85;1.10;;;12.00;99.90;;;;;;4875913;29;20053;-62
2023/12/24 05:00:23;;;;;;;8.55;1.15;;;12.10;99.90;;;;;;4859457;29;20045;-65
2023/12/24 05:02:51;;;;;;;7.68;1.13;;;12.10;99.90;;;;;;4873694;29;20402;-61
2023/12/24 05:05:19;;;;;;;4.03;0.70;;;12.10;99.90;;;;;;4861510;29;20048;-61
2023/12/24 05:07:47;;;;;;;7.63;0.80;;;12.10;99.90;;;;;;4860699;29;20402;-63
2023/12/24 05:10:16;;;;;;;6.38;0.85;;;12.10;99.90;;;;;;4874130;29;20041;-61
2023/12/24 05:12:43;;;;;;;6.10;0.82;;;12.10;99.90;;;;;;4876289;29;20060;-67
2023/12/24 05:15:11;;;;;;;4.00;1.05;;;12.10;99.90;;;;;;4877665;29;20057;-63
2023/12/24 05:17:39;;;;;;;5.05;1.40;;;12.10;99.90;;;;;;4877225;29;20076;-62
2023/12/24 05:20:07;;;;;;;7.78;0.70;;;12.10;99.90;;;;;;4879129;29;20052;-67
2023/12/24 05:22:35;;;;;;;3.53;0.85;;;12.10;99.90;;;;;;4877050;29;20041;-64
2023/12/24 05:25:04;;;;;;;3.53;0.98;;;12.20;99.90;;;;;;4868529;29;20045;-64
2023/12/24 05:27:33;;;;;;;5.72;0.80;;;12.10;99.90;;;;;;4881238;29;20072;-64
2023/12/24 05:30:00;;;;;;;5.00;0.90;;;12.20;99.90;;;;;;4866583;29;20054;-64
2023/12/24 05:32:28;;;;;;;3.08;0.60;;;12.20;99.90;;;;;;4862735;29;20508;-62
2023/12/24 05:34:56;;;;;;;2.78;0.73;;;12.10;99.90;;;;;;4862397;29;20057;-65
2023/12/24 05:37:24;;;;;;;2.00;0.73;;;12.10;99.90;;;;;;4872346;29;20052;-62
2023/12/24 05:39:52;;;;;;;3.75;1.02;;;12.10;99.90;;;;;;4880890;29;20064;-62
2023/12/24 05:42:19;;;;;;;4.45;0.80;;;12.10;99.90;;;;;;4873330;29;20665;-62
2023/12/24 05:44:47;;;;;;;6.32;0.70;;;12.00;99.90;;;;;;4862417;29;20054;-62
2023/12/24 05:47:15;;;;;;;6.85;0.77;;;12.00;99.90;;;;;;4860535;29;20061;-62
2023/12/24 05:49:43;;;;;;;7.57;1.15;;;11.90;99.90;;;;;;4872947;29;20048;-67
2023/12/24 05:52:11;;;;;;;2.15;0.43;;;11.90;99.90;;;;;;4876758;29;20045;-63
2023/12/24 05:54:39;;;;;;;5.28;0.60;;;11.80;99.90;;;;;;4877751;29;20064;-66
2023/12/24 05:57:07;;;;;;;4.15;0.35;;;11.80;99.90;;;;;;4877232;29;20398;-62
2023/12/24 05:59:35;;;;;;;2.33;0.20;;;11.80;99.90;;;;;;4863824;29;20049;-62
2023/12/24 06:02:03;;;;;;;3.60;0.52;;;11.80;99.90;;;;;;4858006;29;20057;-61
2023/12/24 06:04:31;;;;;;;0.03;0.03;;;11.70;99.90;;;;;;4870895;29;20049;-61
2023/12/24 06:07:01;;;;;;;3.22;0.40;;;11.70;99.90;;;;;;4872356;29;20089;-62
2023/12/24 06:09:29;;;;;;;4.70;0.40;;;11.70;99.90;;;;;;4861945;29;20058;-62
2023/12/24 06:11:57;;;;;;;1.02;0.22;;;11.70;99.90;;;;;;4855673;29;20065;-62
2023/12/24 06:14:25;;;;;;;1.35;0.15;;;11.70;99.90;;;;;;4872416;29;20619;-62
2023/12/24 06:16:53;;;;;;;3.13;0.30;;;11.70;99.90;;;;;;4869797;29;20397;-70
2023/12/24 06:19:21;;;;;;;1.33;0.15;;;11.70;99.90;;;;;;4870603;29;20509;-66
2023/12/24 06:21:50;;;;;;;0.57;0.10;;;11.70;99.90;;;;;;4875769;29;20055;-63
2023/12/24 06:24:20;;;;;;;0.15;0.10;;;11.70;99.90;;;;;;4872834;29;20068;-62
2023/12/24 06:26:49;;;;;;;0.10;0.10;;;11.70;99.90;;;;;;4855449;29;20143;-61
2023/12/24 06:29:17;;;;;;;1.40;0.15;;;11.70;99.90;;;;;;4866027;29;20052;-65
2023/12/24 06:31:45;;;;;;;0.90;0.08;;;11.70;99.90;;;;;;4867355;29;20056;-63
2023/12/24 06:34:14;;;;;;;3.38;0.30;;;11.70;99.90;;;;;;4869012;29;20535;-70
2023/12/24 06:36:42;;;;;;;1.42;0.22;;;11.70;99.90;;;;;;4870047;29;20053;-62
2023/12/24 06:39:11;;;;;;;1.65;0.15;;;11.60;99.90;;;;;;4869500;29;20049;-64
2023/12/24 06:41:40;;;;;;;1.15;0.13;;;11.70;99.90;;;;;;4855178;29;20486;-65
2023/12/24 06:44:09;;;;;;;1.10;0.20;;;11.70;99.90;;;;;;4875440;29;20060;-63
2023/12/24 06:46:38;;;;;;;1.20;0.10;;;11.60;99.90;;;;;;4859377;29;20053;-65
2023/12/24 06:49:06;;;;;;;0.10;0.00;;;11.60;99.90;;;;;;4859785;29;20053;-65
2023/12/24 06:51:34;;;;;;;0.93;0.10;;;11.60;99.90;;;;;;4862334;29;20067;-65
2023/12/24 06:54:01;;;;;;;2.30;0.17;;;11.60;99.90;;;;;;4876186;29;20053;-63
2023/12/24 06:56:29;;;;;;;1.27;0.13;;;11.60;99.90;;;;;;4876326;29;20052;-68
2023/12/24 06:58:57;;;;;;;0.30;0.10;;;11.60;99.90;;;;;;4860945;29;20053;-64
2023/12/24 07:01:25;;;;;;;0.00;0.00;;;11.60;99.90;;;;;;4856144;29;20054;-64
2023/12/24 07:03:53;;;;;;;0.85;0.10;;;11.60;99.90;;;;;;4858118;29;20050;-62
2023/12/24 07:06:22;;;;;;;0.68;0.20;;;11.60;99.90;;;;;;4855382;29;20056;-62
2023/12/24 07:08:51;;;;;;;1.20;0.10;;;11.60;99.90;;;;;;4869849;29;20061;-62
2023/12/24 07:11:19;;;;;;;0.28;0.10;;;11.60;99.90;;;;;;4872564;29;20065;-67
2023/12/24 07:13:48;;;;;;;0.10;0.10;;;11.60;99.90;;;;;;4867968;29;20049;-68
2023/12/24 07:16:16;;;;;;;0.00;0.00;;;11.60;99.90;;;;;;4890498;29;20060;-61
2023/12/24 07:18:44;;;;;;;1.23;0.20;;;11.60;99.90;;;;;;4864336;29;20494;-68
2023/12/24 07:21:12;;;;;;;0.17;0.00;;;11.60;99.90;;;;;;4857544;29;20049;-63
2023/12/24 07:23:41;;;;;;;0.20;0.00;;;11.60;99.90;;;;;;4862612;29;20048;-63
2023/12/24 07:26:10;;;;;;;0.20;0.10;;;11.70;99.90;;;;;;4860466;29;20053;-66
2023/12/24 07:28:38;;;;;;;0.43;0.00;;;11.70;99.90;;;;;;4869036;29;20045;-62
2023/12/24 07:31:05;;;;;;;0.05;0.05;;;11.70;99.90;;;;;;4857347;29;20061;-62
2023/12/24 07:33:34;;;;;;;1.55;0.08;;;11.70;99.90;;;;;;4867253;29;20501;-61
2023/12/24 07:36:03;;;;;;;0.25;0.00;;;11.80;99.90;;;;;;4857223;29;20053;-65
2023/12/24 07:38:31;;;;;;;0.50;0.00;;;11.80;99.90;;;;;;4857107;29;20413;-68
2023/12/24 07:40:59;;;;;;;1.33;0.20;;;11.80;99.90;;;;;;4867623;29;20057;-63
2023/12/24 07:43:28;;;;;;;0.65;0.05;;;11.80;99.90;;;;;;4866164;29;20041;-62
2023/12/24 07:45:56;;;;;;;0.00;0.00;;;11.80;99.90;;;;;;4857692;29;20064;-62
2023/12/24 07:48:24;;;;;;;0.30;0.00;;;11.80;99.90;;;;;;4872147;29;20042;-63
2023/12/24 07:50:55;;;;;;;0.08;0.08;;;11.80;99.90;;;;;;4856131;29;20060;-63
2023/12/24 07:53:23;;;;;;;0.10;0.08;;;11.90;99.90;;;;;;4869396;29;20046;-66
2023/12/24 07:55:51;;;;;;;1.55;0.05;;;11.80;99.90;;;;;;4856562;29;20049;-66
2023/12/24 07:58:19;;;;;;;0.00;0.00;;;11.90;99.90;;;;;;4865907;29;20053;-62
2023/12/24 08:00:47;;;;;;;0.90;0.00;;;11.90;99.90;;;;;;4858832;29;20064;-65
2023/12/24 08:03:15;;;;;;;0.10;0.00;;;11.90;99.90;;;;;;4861463;29;20139;-62
2023/12/24 08:05:44;;;;;;;0.80;0.03;;;11.90;99.90;;;;;;4853525;29;20068;-62
2023/12/24 08:08:13;;;;;;;0.03;0.00;;;12.00;99.90;;;;;;4861580;29;20473;-63
2023/12/24 08:10:41;;;;;;;0.65;0.10;;;11.90;99.90;;;;;;4872127;29;20057;-62
2023/12/24 08:13:08;;;;;;;1.13;0.10;;;12.00;99.90;;;;;;4870742;29;20049;-61
2023/12/24 08:15:41;;;;;;;0.00;0.00;;;12.00;99.90;;;;;;4855773;29;20069;-61
2023/12/24 08:18:09;;;;;;;0.10;0.00;;;12.00;99.90;;;;;;4870725;29;20608;-61
2023/12/24 08:20:37;;;;;;;1.88;0.30;;;12.00;99.90;;;;;;4866759;29;20069;-61
2023/12/24 08:23:07;;;;;;;0.65;0.10;;;12.00;99.90;;;;;;4863889;29;20037;-61
2023/12/24 08:25:34;;;;;;;1.47;0.30;;;12.00;99.90;;;;;;4859185;29;20045;-61
2023/12/24 08:28:05;;;;;;;0.95;0.10;;;12.00;99.90;;;;;;4859579;29;20040;-62
2023/12/24 08:30:33;;;;;;;1.02;0.20;;;12.00;99.90;;;;;;4865249;29;20536;-61
2023/12/24 08:33:01;;;;;;;0.10;0.10;;;12.00;99.90;;;;;;4869179;29;20049;-61
2023/12/24 08:35:29;;;;;;;1.30;0.10;;;12.00;99.90;;;;;;4860540;29;20053;-66
2023/12/24 08:37:57;;;;;;;0.65;0.13;;;12.00;99.90;;;;;;4863649;29;20482;-65
2023/12/24 08:40:29;;;;;;;1.02;0.10;;;12.00;99.90;;;;;;4873499;29;20501;-63
2023/12/24 08:42:57;;;;;;;2.42;0.38;;;12.00;99.90;;;;;;4869613;29;20041;-62
2023/12/24 08:45:24;;;;;;;0.10;0.10;;;12.00;99.90;;;;;;4864809;29;20061;-62
2023/12/24 08:47:53;;;;;;;0.85;0.28;;;12.00;99.90;;;;;;4855902;29;20080;-61
2023/12/24 08:50:21;;;;;;;0.10;0.10;;;12.00;99.90;;;;;;4855837;29;20057;-63
2023/12/24 08:52:49;;;;;;;2.80;0.15;;;11.90;99.90;;;;;;4859128;29;20517;-63
2023/12/24 08:55:18;;;;;;;2.00;0.10;;;11.90;99.90;;;;;;4862568;29;20057;-63
2023/12/24 08:57:46;;;;;;;0.57;0.20;;;11.90;99.90;;;;;;4856758;29;20041;-62
2023/12/24 09:00:14;;;;;;;1.52;0.17;;;11.90;99.90;;;;;;4864637;29;20052;-62
2023/12/24 09:02:44;;;;;;;0.13;0.08;;;11.80;99.90;;;;;;4854632;29;20058;-62
2023/12/24 09:05:13;;;;;;;2.80;0.20;;;11.80;99.90;;;;;;4861137;29;20049;-64
2023/12/24 09:07:40;;;;;;;2.28;0.20;;;11.80;99.90;;;;;;4863885;29;20516;-63
2023/12/24 09:10:08;;;;;;;2.55;0.20;;;11.80;99.90;;;;;;4859119;29;20053;-67
2023/12/24 09:12:36;;;;;;;1.33;0.20;;;11.80;99.90;;;;;;4869532;29;20052;-62
2023/12/24 09:15:05;;;;;;;0.40;0.10;;;11.80;99.90;;;;;;4865119;29;20060;-64
2023/12/24 09:17:32;;;;;;;3.08;0.30;;;11.80;99.90;;;;;;4857786;29;20045;-63
2023/12/24 09:20:01;;;;;;;0.35;0.28;;;11.70;99.90;;;;;;4870712;29;20045;-62
2023/12/24 09:22:33;;;;;;;1.55;0.15;;;11.80;99.90;;;;;;4865288;29;20057;-61
2023/12/24 09:25:01;;;;;;;0.00;0.00;;;11.80;99.90;;;;;;4869315;29;20045;-61
2023/12/24 09:27:29;;;;;;;0.63;0.05;;;11.70;99.90;;;;;;4869711;29;20382;-61
2023/12/24 09:30:03;;;;;;;1.02;0.13;;;11.80;99.90;;;;;;4873625;29;20073;-61
2023/12/24 09:32:32;;;;;;;0.60;0.00;;;11.70;99.90;;;;;;4872811;29;20406;-62
2023/12/24 09:35:00;;;;;;;3.40;0.65;;;11.70;99.90;;;;;;4859604;29;20045;-62
2023/12/24 09:37:30;;;;;;;0.73;0.43;;;11.70;99.90;;;;;;4857686;29;20048;-61
2023/12/24 09:39:58;;;;;;;0.88;0.20;;;11.70;99.90;;;;;;4864352;29;20068;-61
2023/12/24 09:42:26;;;;;;;3.03;0.10;;;11.70;99.90;;;;;;4867025;29;20052;-62
2023/12/24 09:44:54;;;;;;;0.73;0.00;;;11.70;99.90;;;;;;4871277;29;20045;-62
2023/12/24 09:47:23;;;;;;;0.20;0.00;;;11.70;99.90;;;;;;4856186;29;20045;-63
2023/12/24 09:49:51;;;;;;;0.40;0.10;;;11.70;99.90;;;;;;4866813;29;20049;-64
2023/12/24 09:52:21;;;;;;;0.75;0.00;;;11.70;99.90;;;;;;4860222;29;20068;-66
2023/12/24 09:54:50;;;;;;;0.60;0.10;;;11.70;99.90;;;;;;4867035;29;20068;-62
2023/12/24 09:57:18;;;;;;;1.38;0.10;;;11.70;99.90;;;;;;4858933;29;20050;-61
2023/12/24 09:59:47;;;;;;;1.30;0.15;;;11.70;99.90;;;;;;4859273;29;20053;-67
2023/12/24 10:02:15;;;;;;;1.30;0.20;;;11.70;99.90;;;;;;4868868;29;20053;-66
2023/12/24 10:04:43;;;;;;;0.20;0.10;;;11.70;99.90;;;;;;4864060;29;20060;-61
2023/12/24 10:07:12;;;;;;;0.20;0.08;;;11.70;99.90;;;;;;4873197;29;20053;-61
2023/12/24 10:09:52;;;;;;;0.30;0.05;;;11.70;99.90;;;;;;4876793;29;20049;-66
2023/12/24 10:12:19;;;;;;;1.48;0.05;;;11.70;99.90;;;;;;4860353;29;20069;-65
2023/12/24 10:14:57;;;;;;;3.20;0.10;;;11.70;99.90;;;;;;4861030;29;20046;-71
2023/12/24 10:17:27;;;;;;;1.25;0.10;;;11.70;99.90;;;;;;4868190;29;20064;-68
2023/12/24 10:19:57;;;;;;;0.45;0.00;;;11.70;99.90;;;;;;4861269;29;20494;-63
2023/12/24 10:22:26;;;;;;;0.08;0.08;;;11.70;99.90;;;;;;4864684;29;20052;-69
2023/12/24 10:25:05;;;;;;;0.52;0.00;;;11.80;99.90;;;;;;4872988;29;20045;-62
2023/12/24 10:27:34;;;;;;;0.63;0.10;;;11.80;99.90;;;;;;4869708;29;20045;-63
2023/12/24 10:30:12;;;;;;;1.92;0.10;;;11.80;99.90;;;;;;4876909;29;20393;-63
2023/12/24 10:32:42;;;;;;;1.90;0.10;;;11.80;99.90;;;;;;4874398;29;20045;-64
2023/12/24 10:35:11;;;;;;;0.00;0.00;;;11.80;99.90;;;;;;4866821;29;20064;-67
2023/12/24 10:37:40;;;;;;;0.80;0.10;;;11.80;99.90;;;;;;4876770;29;20048;-63
2023/12/24 10:40:10;;;;;;;0.70;0.00;;;11.90;99.90;;;;;;4864697;29;20050;-69
2023/12/24 10:42:40;;;;;;;0.20;0.08;;;11.80;99.90;;;;;;4865487;29;20048;-71
2023/12/24 10:45:11;;;;;;;0.20;0.10;;;11.80;99.90;;;;;;4875454;29;20049;-68
2023/12/24 10:47:40;;;;;;;0.10;0.03;;;11.80;99.90;;;;;;4861311;29;20060;-62
2023/12/24 10:50:08;;;;;;;0.43;0.03;;;11.80;99.90;;;;;;4871818;29;20045;-65
2023/12/24 10:52:36;;;;;;;0.10;0.10;;;11.80;99.90;;;;;;4872799;29;20056;-61
2023/12/24 10:55:05;;;;;;;1.15;0.00;;;11.80;99.90;;;;;;4862060;29;20060;-64
2023/12/24 10:58:06;;;;;;;0.10;0.10;;;11.80;99.90;;;;;;4860122;29;20057;-66
2023/12/24 11:00:35;;;;;;;2.05;0.10;;;11.80;99.90;;;;;;4867122;29;20045;-62
2023/12/24 11:03:04;;;;;;;0.80;0.05;;;11.80;99.90;;;;;;4863161;29;20315;-62
2023/12/24 11:05:45;;;;;;;1.88;0.20;;;11.80;99.90;;;;;;4864821;29;20486;-62
2023/12/24 11:08:23;;;;;;;0.30;0.10;;;11.80;99.90;;;;;;4855717;29;20049;-61
2023/12/24 11:10:57;;;;;;;0.00;0.00;;;11.80;99.90;;;;;;4864043;29;20072;-62
2023/12/24 11:13:33;;;;;;;0.00;0.00;;;11.80;99.90;;;;;;4872442;29;20045;-63
2023/12/24 11:16:06;;;;;;;3.33;0.20;;;11.80;99.90;;;;;;4857884;29;20414;-62
2023/12/24 11:18:47;;;;;;;0.03;0.03;;;11.80;99.90;;;;;;4856527;29;20049;-64
2023/12/24 11:21:19;;;;;;;2.15;0.10;;;11.80;99.90;;;;;;4858192;29;20395;-61
2023/12/24 11:24:12;;;;;;;0.05;0.05;;;11.80;99.90;;;;;;4863580;29;20430;-66
2023/12/24 11:26:59;;;;;;;0.00;0.00;;;11.80;99.90;;;;;;4856219;29;20061;-64
2023/12/24 11:29:40;;;;;;;0.52;0.00;;;11.90;99.90;;;;;;4856784;29;20057;-61
2023/12/24 11:32:24;;;;;;;0.00;0.00;;;11.90;99.90;;;;;;4860531;29;20049;-63
2023/12/24 11:34:57;;;;;;;0.10;0.10;;;12.00;99.90;;;;;;4872087;29;20340;-61
2023/12/24 11:37:34;;;;;;;0.10;0.10;;;12.00;99.90;;;;;;4859536;29;20053;-63
2023/12/24 11:40:17;;;;;;;0.10;0.10;;;12.00;99.90;;;;;;4875109;29;20536;-62
2023/12/24 11:42:50;;;;;;;0.47;0.10;;;12.10;99.90;;;;;;4868958;29;20059;-61
2023/12/24 11:45:29;;;;;;;0.35;0.10;;;12.10;99.90;;;;;;4856617;29;20494;-62
2023/12/24 11:48:01;;;;;;;0.57;0.17;;;12.10;99.90;;;;;;4862278;29;20060;-61
2023/12/24 11:50:29;;;;;;;0.10;0.10;;;12.10;99.90;;;;;;4872351;29;20061;-61
2023/12/24 11:52:59;;;;;;;0.52;0.30;;;12.20;99.90;;;;;;4862337;29;20083;-65
2023/12/24 11:55:27;;;;;;;1.30;0.20;;;12.20;99.90;;;;;;4872964;29;20057;-62
2023/12/24 11:57:55;;;;;;;0.30;0.10;;;12.20;99.90;;;;;;4863533;29;20049;-62
2023/12/24 12:00:27;;;;;;;0.25;0.10;;;12.20;99.90;;;;;;4868280;29;20061;-61
2023/12/24 12:02:58;;;;;;;0.90;0.20;;;12.30;99.90;;;;;;4861648;29;20761;-61
2023/12/24 12:05:28;;;;;;;1.95;0.30;;;12.30;99.90;;;;;;4869789;29;20522;-62
2023/12/24 12:07:57;;;;;;;3.27;0.30;;;12.30;99.90;;;;;;4862193;29;20049;-62
2023/12/24 12:10:25;;;;;;;1.77;0.45;;;12.30;99.90;;;;;;4862490;29;20057;-61
2023/12/24 12:12:53;;;;;;;1.35;0.20;;;12.30;99.90;;;;;;4859893;29;20050;-63
2023/12/24 12:15:23;;;;;;;4.05;0.20;;;12.30;99.90;;;;;;4858853;29;20049;-62
2023/12/24 12:17:51;;;;;;;2.33;0.35;;;12.30;99.90;;;;;;4855072;29;20056;-65
2023/12/24 12:20:20;;;;;;;1.35;0.20;;;12.40;99.90;;;;;;4858414;29;20056;-61
2023/12/24 12:22:51;;;;;;;1.00;0.20;;;12.40;99.90;;;;;;4856903;29;20426;-61
2023/12/24 12:25:20;;;;;;;2.83;0.30;;;12.40;99.90;;;;;;4862385;29;20051;-60
2023/12/24 12:27:47;;;;;;;2.03;0.25;;;12.40;99.90;;;;;;4859856;29;20057;-68
2023/12/24 12:30:16;;;;;;;1.98;0.50;;;12.40;99.90;;;;;;4874556;29;20057;-61
2023/12/24 12:32:44;;;;;;;1.63;0.10;;;12.40;99.90;;;;;;4868616;29;20060;-61
2023/12/24 12:35:13;;;;;;;1.75;0.40;;;12.50;99.90;;;;;;4873651;29;20045;-61
2023/12/24 12:37:41;;;;;;;1.20;0.30;;;12.50;99.90;;;;;;4871510;29;20510;-61
2023/12/24 12:40:09;;;;;;;4.95;0.50;;;12.50;99.90;;;;;;4855044;29;20049;-61
2023/12/24 12:42:38;;;;;;;3.47;0.40;;;12.50;99.90;;;;;;4857676;29;20053;-61
2023/12/24 12:45:12;;;;;;;0.75;0.20;;;12.60;99.90;;;;;;4856784;29;20041;-62
2023/12/24 12:47:40;;;;;;;3.40;0.47;;;12.60;99.90;;;;;;4857344;29;20077;-66
2023/12/24 12:50:09;;;;;;;2.70;0.30;;;12.70;99.90;;;;;;4856120;29;20152;-65
2023/12/24 12:52:38;;;;;;;4.13;0.50;;;12.70;99.90;;;;;;4858936;29;20528;-60
2023/12/24 12:55:12;;;;;;;1.50;0.57;;;12.70;99.90;;;;;;4857010;29;20048;-64
2023/12/24 12:57:41;;;;;;;2.53;0.32;;;12.70;99.90;;;;;;4860568;29;20080;-60